Airport View

Enter AWOS ICAO identifier for current METAR.

ex. KFNL

KRFI 031640Z AUTO 25004KT 10SM CLR 30/23 A3002 RMK AO2 LTG DSNT NE T03000227

3 Jul 2020 16:45

Frequency: 119.375

Phone: 903-657-0384

Other Area AWOS: KGGG - KJSO - KTYR - KJXI

TAF KGGG 031140Z 0312/0412 24005KT P6SM BKN050 BKN130 FM031900 27007KT P6SM VCTS BKN050CB BKN150 BKN250 FM032100 VRB10G15KT 4SM TSRA BKN050CB